Commerce Township, MI (48382)

07:50 EDT 26. Srpen 2016 (GMT -0400)
Lower Straits Lake | | Change Station

Výška 938 ft 42.59 °N, 83.47 °W | Updated 8 minutes ago

Mostly Cloudy
Skoro zataženo
62.2 °F
Pocit jako 62.2 °F
S
0.0
Vítr proměnlivý Vítr od SZ
Gusts 0.0 mil/h

Dnes
Vysoké -- | Nízké -- °F
--% Možnost srážek
Včera
Vysoké -- | Nízké -- °F
Precip. -- inčů
Tlak 30.09 inčů
Viditelnost 10.0 mílí
Zataženo Nemnoho 18000 ft
Skoro zataženo 22000 ft
Rosný bod 58 °F
Vlhkost 87%
Dešťové srážky 0.00 inčů
Sněhová pokrývka Není k dispozici
6:53 AM 8:17 PM
Ubývající srpek, 35% visible
METAR KPTK 261053Z 00000KT 10SM FEW180 BKN220 17/16 A3011 RMK AO2 SLP190 T01670156
Tlak 30.09 inčů
Viditelnost 10.0 mílí
Zataženo Nemnoho 18000 ft
Skoro zataženo 22000 ft
Rosný bod 58 °F
Vlhkost 87%
Dešťové srážky 0.00 inčů
Sněhová pokrývka Není k dispozici
6:53 AM 8:17 PM
Ubývající srpek, 35% visible
METAR KPTK 261053Z 00000KT 10SM FEW180 BKN220 17/16 A3011 RMK AO2 SLP190 T01670156

10-Day Weather Forecast

Almanac

Astronomie

Aug. 26, 2016 Východ Západ
Skutečný čas
Občanský soumrak
Námořní soumrak
Astronomický soumrak
Měsíc
Délka denního světla
Délka dne
Tomorrow will be .
, % of the Moon is Illuminated

Dnešní extrémy

State Highs State Lows

Community

WunderPhotos

Upload Photos

1,935,071 snímků staženo!

WunderBlog® & News

Nearby

Kvalita ovzduší

  Kvalita ovzduší Index kvality ovzduší Polutant
Not available.

Výška sněhu

Station Hloubka Nadmořská výška

Seizmická činnost

Město Distance Mag. Čas & datum
Minimální zobrazený rozsah je 2.5.

Pobřežní teplota vody

Lokalita Teplota

Stations

Poblíž povětrnostní stanice

Lokace stanice Tepl. Ochlazování větrem Rosný bod Vlhkost Vítr Precip. Výška Čas hlášení Typ
                   

Watches & Warnings

There are currently no watches in effect.